Time;durP1;ratioP1;P1;durP2;ratioP2;P2;SDS_P1;SDS_P2;PMS_P1;PMS_P2;Temp;Humidity;BMP_temperature;BMP_pressure;BME280_temperature;BME280_humidity;BME280_pressure;Samples;Min_cycle;Max_cycle;Signal;HPM_P1;HPM_P2
2021/08/05 00:01:45;;;;;;;2.30;2.03;;;17.40;99.90;;;;;;6247810;28;20604;-68
2021/08/05 00:04:48;;;;;;;1.90;1.80;;;17.40;99.90;;;;;;6247787;28;20196;-68
2021/08/05 00:07:50;;;;;;;1.87;1.70;;;17.30;99.90;;;;;;6247999;28;20195;-68
2021/08/05 00:10:52;;;;;;;2.80;2.10;;;17.30;99.90;;;;;;6246769;28;20330;-68
2021/08/05 00:13:54;;;;;;;2.37;2.17;;;17.30;99.90;;;;;;6247843;28;20192;-68
2021/08/05 00:16:57;;;;;;;2.40;2.20;;;17.30;99.90;;;;;;6247532;28;20489;-68
2021/08/05 00:19:59;;;;;;;2.20;2.00;;;17.30;99.90;;;;;;6247301;28;20215;-68
2021/08/05 00:23:01;;;;;;;2.10;1.77;;;17.30;99.90;;;;;;6247643;28;20191;-68
2021/08/05 00:26:04;;;;;;;2.07;1.93;;;17.30;99.90;;;;;;6247417;28;20722;-68
2021/08/05 00:29:06;;;;;;;2.43;1.90;;;17.30;99.90;;;;;;6246168;28;20203;-68
2021/08/05 00:32:08;;;;;;;1.97;1.73;;;17.20;99.90;;;;;;6246979;28;20199;-68
2021/08/05 00:35:11;;;;;;;2.10;1.90;;;17.20;99.90;;;;;;6246871;28;20212;-68
2021/08/05 00:38:15;;;;;;;2.50;2.23;;;17.20;99.90;;;;;;6245897;28;20293;-68
2021/08/05 00:41:19;;;;;;;1.80;1.70;;;17.20;99.90;;;;;;6262219;28;20679;-69
2021/08/05 00:44:21;;;;;;;2.10;1.90;;;17.30;99.90;;;;;;6245996;28;20294;-68
2021/08/05 00:47:26;;;;;;;1.63;1.53;;;17.30;99.90;;;;;;6245762;28;20212;-69
2021/08/05 00:50:29;;;;;;;2.20;2.00;;;17.30;99.90;;;;;;6246875;28;20172;-69
2021/08/05 00:53:32;;;;;;;2.77;2.07;;;17.20;99.90;;;;;;6245571;28;20291;-68
2021/08/05 00:56:34;;;;;;;2.23;2.03;;;17.30;99.90;;;;;;6245445;28;20192;-69
2021/08/05 00:59:37;;;;;;;2.17;1.97;;;17.30;99.90;;;;;;6246643;28;20204;-69
2021/08/05 01:02:50;;;;;;;2.40;2.20;;;17.30;99.90;;;;;;6246246;28;20188;-69
2021/08/05 01:06:01;;;;;;;2.00;1.80;;;17.30;99.90;;;;;;6261927;28;20242;-69
2021/08/05 01:09:29;;;;;;;4.07;1.93;;;17.20;99.90;;;;;;6246557;28;20651;-69
2021/08/05 01:12:50;;;;;;;2.70;2.03;;;17.30;99.90;;;;;;6246108;28;20214;-69
2021/08/05 01:15:55;;;;;;;2.40;2.20;;;17.20;99.90;;;;;;6244750;28;20224;-70
2021/08/05 01:19:22;;;;;;;2.50;2.27;;;17.20;99.90;;;;;;6244872;28;20219;-69
2021/08/05 01:22:59;;;;;;;2.93;1.90;;;17.20;99.90;;;;;;6245703;28;20180;-70
2021/08/05 01:26:16;;;;;;;2.93;2.10;;;17.20;99.90;;;;;;6244911;28;20193;-70
2021/08/05 01:29:19;;;;;;;2.70;2.30;;;17.20;99.90;;;;;;6244664;28;20206;-70
2021/08/05 01:32:21;;;;;;;2.50;2.10;;;17.20;99.90;;;;;;6244502;28;20663;-70
2021/08/05 01:35:26;;;;;;;2.23;2.03;;;17.20;99.90;;;;;;6244678;28;20214;-69
2021/08/05 01:38:32;;;;;;;2.70;2.10;;;17.20;99.90;;;;;;6245779;28;20223;-69
2021/08/05 01:41:36;;;;;;;2.30;2.10;;;17.20;99.90;;;;;;6245690;28;20199;-69
2021/08/05 01:44:42;;;;;;;2.03;1.93;;;17.20;99.90;;;;;;6261097;28;20204;-69
2021/08/05 01:47:45;;;;;;;2.60;2.10;;;17.10;99.90;;;;;;6244382;28;20207;-69
2021/08/05 01:50:53;;;;;;;1.97;1.87;;;17.10;99.90;;;;;;6260895;28;20630;-69
2021/08/05 01:54:05;;;;;;;3.90;2.20;;;17.10;99.90;;;;;;6245721;28;20275;-69
2021/08/05 01:57:11;;;;;;;2.10;1.87;;;17.10;99.90;;;;;;6246244;28;20192;-70
2021/08/05 02:00:14;;;;;;;2.20;2.00;;;17.10;99.90;;;;;;6244026;28;20585;-68
2021/08/05 02:03:18;;;;;;;3.53;2.10;;;17.20;99.90;;;;;;6245559;28;20184;-68
2021/08/05 02:06:25;;;;;;;2.70;1.90;;;17.20;99.90;;;;;;6245674;28;20192;-69
2021/08/05 02:09:47;;;;;;;2.20;2.00;;;17.20;99.90;;;;;;6244229;28;20249;-69
2021/08/05 02:13:12;;;;;;;2.90;2.17;;;17.20;99.90;;;;;;6260659;28;20207;-69
2021/08/05 02:16:18;;;;;;;2.20;2.00;;;17.20;99.90;;;;;;6243837;28;20243;-69
2021/08/05 02:19:22;;;;;;;2.57;2.37;;;17.20;99.90;;;;;;6245058;28;20216;-69
2021/08/05 02:22:26;;;;;;;2.40;2.20;;;17.30;99.90;;;;;;6243785;28;20184;-69
2021/08/05 02:25:29;;;;;;;2.53;2.07;;;17.30;99.90;;;;;;6243850;28;20326;-69
2021/08/05 02:28:32;;;;;;;5.40;2.20;;;17.30;99.90;;;;;;6243859;28;20196;-69
2021/08/05 02:31:37;;;;;;;1.90;1.80;;;17.30;99.90;;;;;;6243783;28;20283;-69
2021/08/05 02:34:40;;;;;;;2.50;2.30;;;17.30;99.90;;;;;;6262199;28;20212;-69
2021/08/05 02:37:43;;;;;;;2.20;2.00;;;17.30;99.90;;;;;;6265102;28;20196;-69
2021/08/05 02:40:48;;;;;;;2.40;2.20;;;17.30;99.90;;;;;;6249019;28;20203;-69
2021/08/05 02:43:53;;;;;;;2.47;2.20;;;17.30;99.90;;;;;;6249732;28;20354;-69
2021/08/05 02:46:56;;;;;;;2.87;2.23;;;17.20;99.90;;;;;;6265002;28;20202;-68
2021/08/05 02:49:59;;;;;;;2.20;2.00;;;17.20;99.90;;;;;;6231937;28;20719;-69
2021/08/05 02:53:04;;;;;;;2.30;2.10;;;17.30;99.90;;;;;;6248355;28;20533;-69
2021/08/05 02:56:09;;;;;;;2.50;2.30;;;17.30;99.90;;;;;;6248223;28;20572;-69
2021/08/05 02:59:15;;;;;;;2.47;2.27;;;17.20;99.90;;;;;;6247992;28;20219;-69
2021/08/05 03:02:18;;;;;;;3.03;2.70;;;17.30;99.90;;;;;;6264446;28;20224;-69
2021/08/05 03:05:21;;;;;;;2.67;2.47;;;17.30;99.90;;;;;;6249430;28;20229;-69
2021/08/05 03:08:23;;;;;;;2.70;2.50;;;17.30;99.90;;;;;;6249406;28;20296;-70
2021/08/05 03:11:26;;;;;;;2.67;2.47;;;17.20;99.90;;;;;;6264420;28;20280;-69
2021/08/05 03:14:28;;;;;;;2.87;2.50;;;17.20;99.90;;;;;;6248797;28;20239;-69
2021/08/05 03:17:30;;;;;;;3.40;3.10;;;17.20;99.90;;;;;;6248961;28;20195;-70
2021/08/05 03:20:33;;;;;;;4.33;2.90;;;17.20;99.90;;;;;;6248975;28;20213;-70
2021/08/05 03:23:36;;;;;;;2.07;1.93;;;17.20;99.90;;;;;;6248589;28;20555;-70
2021/08/05 03:26:38;;;;;;;2.70;1.93;;;17.10;99.90;;;;;;6247595;28;20280;-71
2021/08/05 03:29:40;;;;;;;2.33;1.70;;;17.10;99.90;;;;;;6248699;28;20655;-69
2021/08/05 03:32:42;;;;;;;2.13;1.23;;;17.00;99.90;;;;;;6249099;28;20188;-70
2021/08/05 03:35:45;;;;;;;2.03;1.30;;;16.90;99.90;;;;;;6248570;28;20216;-69
2021/08/05 03:38:47;;;;;;;2.43;1.10;;;16.90;99.90;;;;;;6247367;28;20235;-70
2021/08/05 03:41:50;;;;;;;2.30;1.00;;;16.80;99.90;;;;;;6248305;28;20197;-71
2021/08/05 03:44:52;;;;;;;1.53;0.70;;;16.70;99.90;;;;;;6247037;28;20188;-69
2021/08/05 03:47:54;;;;;;;0.80;0.80;;;16.70;99.90;;;;;;6263576;28;20203;-69
2021/08/05 03:50:57;;;;;;;0.87;0.80;;;16.60;99.90;;;;;;6248223;28;20281;-69
2021/08/05 03:53:59;;;;;;;2.20;1.00;;;16.60;99.90;;;;;;6248263;28;20279;-69
2021/08/05 03:57:02;;;;;;;0.97;0.70;;;16.50;99.90;;;;;;6248043;28;20263;-70
2021/08/05 04:00:04;;;;;;;0.97;0.60;;;16.50;99.90;;;;;;6246844;28;20619;-70
2021/08/05 04:03:12;;;;;;;0.63;0.57;;;16.50;99.90;;;;;;6246823;28;20204;-69
2021/08/05 04:06:15;;;;;;;1.07;0.70;;;16.50;99.90;;;;;;6246816;28;20667;-69
2021/08/05 04:09:17;;;;;;;0.73;0.70;;;16.40;99.90;;;;;;6247905;28;20194;-70
2021/08/05 04:12:19;;;;;;;1.10;0.70;;;16.40;99.90;;;;;;6246253;28;20279;-69
2021/08/05 04:15:22;;;;;;;1.60;0.50;;;16.30;99.90;;;;;;6246236;28;20242;-68
2021/08/05 04:18:24;;;;;;;3.70;0.90;;;16.30;99.90;;;;;;6247510;28;20246;-69
2021/08/05 04:21:26;;;;;;;3.10;0.70;;;16.30;99.90;;;;;;6247814;28;20214;-70
2021/08/05 04:24:28;;;;;;;1.03;0.60;;;16.30;99.90;;;;;;6247619;28;20275;-69
2021/08/05 04:27:31;;;;;;;0.70;0.70;;;16.20;99.90;;;;;;6247713;28;20653;-69
2021/08/05 04:30:33;;;;;;;0.80;0.70;;;16.30;99.90;;;;;;6247287;28;20188;-69
2021/08/05 04:33:35;;;;;;;2.67;0.70;;;16.20;99.90;;;;;;6247241;28;20279;-69
2021/08/05 04:36:38;;;;;;;1.93;0.60;;;16.20;99.90;;;;;;6247157;28;20220;-70
2021/08/05 04:39:40;;;;;;;0.80;0.70;;;16.20;99.90;;;;;;6246955;28;20212;-69
2021/08/05 04:42:43;;;;;;;0.50;0.50;;;16.20;99.90;;;;;;6246967;28;20726;-71
2021/08/05 04:45:45;;;;;;;0.70;0.70;;;16.20;99.90;;;;;;6245678;28;20215;-69
2021/08/05 04:48:47;;;;;;;0.60;0.60;;;16.10;99.90;;;;;;6246577;28;20217;-69
2021/08/05 04:51:53;;;;;;;0.63;0.63;;;16.20;99.90;;;;;;6246592;28;20270;-69
2021/08/05 04:54:55;;;;;;;0.40;0.40;;;16.20;99.90;;;;;;6220702;28;20196;-69
2021/08/05 04:58:03;;;;;;;1.30;0.50;;;16.20;99.90;;;;;;6242554;28;20301;-69
2021/08/05 05:01:05;;;;;;;0.80;0.60;;;16.20;99.90;;;;;;6261252;28;20235;-69
2021/08/05 05:04:08;;;;;;;1.67;0.60;;;16.30;99.90;;;;;;6244943;28;20659;-69
2021/08/05 05:07:11;;;;;;;4.03;1.03;;;16.30;99.90;;;;;;6246161;28;20231;-69
2021/08/05 05:10:14;;;;;;;1.50;0.63;;;16.30;99.90;;;;;;6244755;28;20200;-69
2021/08/05 05:13:17;;;;;;;0.50;0.47;;;16.30;99.90;;;;;;6246050;28;20200;-69
2021/08/05 05:16:19;;;;;;;0.80;0.70;;;16.30;99.90;;;;;;6245947;28;20680;-68
2021/08/05 05:19:23;;;;;;;1.37;0.50;;;16.20;99.90;;;;;;6244522;28;20219;-69
2021/08/05 05:22:25;;;;;;;0.50;0.50;;;16.20;99.90;;;;;;6220186;28;20192;-69
2021/08/05 05:25:28;;;;;;;0.73;0.53;;;16.20;99.90;;;;;;6242320;28;20319;-70
2021/08/05 05:28:30;;;;;;;4.23;0.60;;;16.20;99.90;;;;;;6244487;28;20188;-69
2021/08/05 05:31:33;;;;;;;0.50;0.50;;;16.20;99.90;;;;;;6244349;28;20213;-70
2021/08/05 05:34:35;;;;;;;0.40;0.40;;;16.20;99.90;;;;;;6245657;28;20715;-70
2021/08/05 05:37:37;;;;;;;0.80;0.50;;;16.20;99.90;;;;;;6244079;28;20645;-69
2021/08/05 05:40:40;;;;;;;0.50;0.50;;;16.20;99.90;;;;;;6245540;28;20311;-69
2021/08/05 05:43:42;;;;;;;0.40;0.40;;;16.20;99.90;;;;;;6244107;28;20271;-70
2021/08/05 05:46:45;;;;;;;2.33;0.67;;;16.30;99.90;;;;;;6245724;28;20188;-70
2021/08/05 05:49:47;;;;;;;0.53;0.53;;;16.30;99.90;;;;;;6245237;28;20191;-69
2021/08/05 05:52:50;;;;;;;0.60;0.40;;;16.30;99.90;;;;;;6245149;28;20203;-69
2021/08/05 05:55:52;;;;;;;1.03;0.50;;;16.30;99.90;;;;;;6245355;28;20196;-69
2021/08/05 05:58:54;;;;;;;1.57;0.30;;;16.30;99.90;;;;;;6245229;28;20212;-69
2021/08/05 06:01:57;;;;;;;0.40;0.40;;;16.30;99.90;;;;;;6245509;28;20352;-69
2021/08/05 06:05:00;;;;;;;1.40;0.53;;;16.30;99.90;;;;;;6245226;28;20202;-69
2021/08/05 06:08:02;;;;;;;1.40;0.30;;;16.20;99.90;;;;;;6260461;28;20578;-69
2021/08/05 06:11:05;;;;;;;0.20;0.20;;;16.20;99.90;;;;;;6249417;28;20195;-70
2021/08/05 06:14:07;;;;;;;0.30;0.30;;;16.20;99.90;;;;;;6249947;28;20730;-70
2021/08/05 06:17:10;;;;;;;1.40;0.40;;;16.20;99.90;;;;;;6250153;28;20203;-68
2021/08/05 06:20:15;;;;;;;0.20;0.20;;;16.10;99.90;;;;;;6249626;28;20294;-69
2021/08/05 06:23:17;;;;;;;0.30;0.30;;;16.10;99.90;;;;;;6248543;28;20192;-69
2021/08/05 06:26:22;;;;;;;0.30;0.30;;;16.10;99.90;;;;;;6249879;28;20555;-69
2021/08/05 06:29:29;;;;;;;0.27;0.27;;;16.20;99.90;;;;;;6249849;28;20633;-69
2021/08/05 06:32:31;;;;;;;0.50;0.23;;;16.20;99.90;;;;;;6248356;28;20275;-69
2021/08/05 06:35:34;;;;;;;0.57;0.30;;;16.30;99.90;;;;;;6249621;28;20313;-69
2021/08/05 06:38:37;;;;;;;0.20;0.20;;;16.30;99.90;;;;;;6249824;28;20200;-70
2021/08/05 06:41:39;;;;;;;0.30;0.30;;;16.30;99.90;;;;;;6265342;28;20197;-68
2021/08/05 06:44:41;;;;;;;0.30;0.30;;;16.20;99.90;;;;;;6249499;28;20234;-68
2021/08/05 06:47:46;;;;;;;0.20;0.20;;;16.20;99.90;;;;;;6248015;28;20202;-69
2021/08/05 06:50:50;;;;;;;0.20;0.20;;;16.20;99.90;;;;;;6248232;28;20204;-69
2021/08/05 06:53:52;;;;;;;0.23;0.20;;;16.20;99.90;;;;;;6249591;28;20188;-69
2021/08/05 06:56:54;;;;;;;0.30;0.30;;;16.20;99.90;;;;;;6249280;28;20750;-68
2021/08/05 06:59:58;;;;;;;0.20;0.20;;;16.20;99.90;;;;;;6249133;28;20207;-69
2021/08/05 07:03:00;;;;;;;0.33;0.27;;;16.10;99.90;;;;;;6249032;28;20237;-69
2021/08/05 07:06:05;;;;;;;0.63;0.23;;;16.10;99.90;;;;;;6239746;28;20208;-69
2021/08/05 07:09:08;;;;;;;0.23;0.23;;;16.10;99.90;;;;;;6245092;28;20203;-69
2021/08/05 07:12:10;;;;;;;0.57;0.20;;;16.10;99.90;;;;;;6247430;28;20209;-70
2021/08/05 07:15:12;;;;;;;0.37;0.37;;;16.10;99.90;;;;;;6247356;28;20231;-68
2021/08/05 07:18:15;;;;;;;1.93;0.30;;;16.10;99.90;;;;;;6236402;28;20285;-68
2021/08/05 07:21:17;;;;;;;0.73;0.30;;;16.00;99.90;;;;;;6248468;28;20651;-68
2021/08/05 07:24:19;;;;;;;0.30;0.20;;;16.00;99.90;;;;;;6247095;28;20214;-69
2021/08/05 07:27:21;;;;;;;0.63;0.30;;;15.90;99.90;;;;;;6247124;28;20286;-69
2021/08/05 07:30:24;;;;;;;0.13;0.13;;;15.90;99.90;;;;;;6248267;28;20659;-68
2021/08/05 07:33:26;;;;;;;0.73;0.30;;;15.90;99.90;;;;;;6246762;28;20753;-69
2021/08/05 07:36:28;;;;;;;0.30;0.30;;;16.00;99.90;;;;;;6248115;28;20219;-68
2021/08/05 07:39:31;;;;;;;2.73;0.30;;;16.00;99.90;;;;;;6246455;28;20254;-69
2021/08/05 07:42:33;;;;;;;1.00;0.20;;;16.10;99.90;;;;;;6246731;28;20192;-69
2021/08/05 07:45:35;;;;;;;0.20;0.10;;;16.20;99.90;;;;;;6246493;28;20196;-69
2021/08/05 07:48:39;;;;;;;1.40;0.20;;;16.30;99.90;;;;;;6246366;28;20196;-69
2021/08/05 07:51:42;;;;;;;1.60;0.20;;;16.40;99.90;;;;;;6247690;28;20537;-69
2021/08/05 07:54:44;;;;;;;1.57;0.30;;;16.50;99.90;;;;;;6246949;28;20206;-69
2021/08/05 07:57:50;;;;;;;1.30;0.20;;;16.60;99.90;;;;;;6246524;28;20206;-69
2021/08/05 08:00:52;;;;;;;0.40;0.20;;;16.60;99.90;;;;;;6247602;28;20223;-69
2021/08/05 08:03:54;;;;;;;3.73;0.37;;;16.70;99.90;;;;;;6247451;28;20192;-69
2021/08/05 08:06:57;;;;;;;0.77;0.20;;;16.70;99.90;;;;;;6247494;28;20188;-70
2021/08/05 08:09:59;;;;;;;0.63;0.20;;;16.80;99.90;;;;;;6245956;28;20207;-69
2021/08/05 08:13:02;;;;;;;2.53;0.20;;;16.80;99.90;;;;;;6247268;28;20195;-69
2021/08/05 08:16:04;;;;;;;2.27;0.13;;;16.90;99.90;;;;;;6247251;28;20714;-69
2021/08/05 08:19:07;;;;;;;0.93;0.20;;;16.90;99.90;;;;;;6247017;28;20282;-69
2021/08/05 08:22:10;;;;;;;0.20;0.20;;;17.00;99.90;;;;;;6247356;28;20599;-70
2021/08/05 08:25:13;;;;;;;0.33;0.20;;;17.00;99.90;;;;;;6247283;28;20662;-69
2021/08/05 08:28:16;;;;;;;0.13;0.13;;;16.90;99.90;;;;;;6245904;28;20200;-69
2021/08/05 08:31:19;;;;;;;0.20;0.17;;;16.90;99.90;;;;;;6246378;28;20188;-69
2021/08/05 08:34:21;;;;;;;0.10;0.10;;;16.90;99.90;;;;;;6246541;28;20194;-69
2021/08/05 08:37:23;;;;;;;1.90;0.20;;;16.90;99.90;;;;;;6245385;28;20231;-69
2021/08/05 08:40:26;;;;;;;0.10;0.10;;;16.90;99.90;;;;;;6246950;28;20215;-69
2021/08/05 08:43:29;;;;;;;0.10;0.10;;;17.00;99.90;;;;;;6245453;28;20793;-70
2021/08/05 08:46:35;;;;;;;0.23;0.20;;;17.10;99.90;;;;;;6245202;28;20362;-70
2021/08/05 08:49:42;;;;;;;0.30;0.30;;;17.20;99.90;;;;;;6245451;28;20284;-69
2021/08/05 08:52:46;;;;;;;0.30;0.10;;;17.20;99.90;;;;;;6246540;28;20177;-70
2021/08/05 08:55:48;;;;;;;1.07;0.10;;;17.20;99.90;;;;;;6246251;28;20203;-70
2021/08/05 08:58:51;;;;;;;0.43;0.10;;;17.20;99.90;;;;;;6246278;28;20238;-70
2021/08/05 09:01:54;;;;;;;1.30;0.30;;;17.20;99.90;;;;;;6244801;28;20263;-69
2021/08/05 09:04:56;;;;;;;0.10;0.10;;;17.10;99.90;;;;;;6245188;28;20199;-71
2021/08/05 09:08:01;;;;;;;1.10;0.30;;;17.00;99.90;;;;;;6246300;28;20187;-69
2021/08/05 09:11:04;;;;;;;0.20;0.10;;;17.00;99.90;;;;;;6246310;28;20647;-70
2021/08/05 09:14:06;;;;;;;0.30;0.30;;;16.90;99.90;;;;;;6245653;28;20315;-70
2021/08/05 09:17:18;;;;;;;0.30;0.10;;;16.90;99.90;;;;;;6246148;28;20223;-70
2021/08/05 09:20:21;;;;;;;0.10;0.10;;;17.00;99.90;;;;;;6222072;28;20372;-70
2021/08/05 09:23:44;;;;;;;1.03;0.20;;;17.00;99.90;;;;;;6257897;28;20195;-69
2021/08/05 09:26:49;;;;;;;0.10;0.10;;;17.10;99.90;;;;;;6246224;28;20685;-71
2021/08/05 09:29:53;;;;;;;0.20;0.10;;;17.20;99.90;;;;;;6244324;28;20679;-71
2021/08/05 09:33:04;;;;;;;0.10;0.10;;;17.30;99.90;;;;;;6245872;28;20223;-71
2021/08/05 09:36:24;;;;;;;0.20;0.20;;;17.30;99.90;;;;;;6244833;28;20535;-71
2021/08/05 09:39:29;;;;;;;1.13;0.10;;;17.30;99.90;;;;;;6245496;28;20207;-71
2021/08/05 09:42:31;;;;;;;0.10;0.10;;;17.30;99.90;;;;;;6245281;28;20718;-71
2021/08/05 09:45:37;;;;;;;0.57;0.20;;;17.30;99.90;;;;;;6245431;28;20184;-70
2021/08/05 09:48:44;;;;;;;0.10;0.10;;;17.30;99.90;;;;;;6245990;28;20184;-68
2021/08/05 09:51:57;;;;;;;0.87;0.10;;;17.30;99.90;;;;;;6244167;28;20180;-68
2021/08/05 09:55:01;;;;;;;0.10;0.10;;;17.30;99.90;;;;;;6220793;28;20215;-69
2021/08/05 09:58:08;;;;;;;0.20;0.20;;;17.30;99.90;;;;;;6242797;28;20677;-70
2021/08/05 10:01:31;;;;;;;0.10;0.10;;;17.20;99.90;;;;;;6245416;28;20200;-69
2021/08/05 10:04:35;;;;;;;1.00;0.20;;;17.20;99.90;;;;;;6245476;28;20261;-69
2021/08/05 10:07:59;;;;;;;1.07;0.90;;;17.10;99.90;;;;;;6243693;28;20635;-67
2021/08/05 10:11:02;;;;;;;0.53;0.30;;;17.10;99.90;;;;;;6245473;28;20194;-68
2021/08/05 10:14:20;;;;;;;0.20;0.20;;;17.20;99.90;;;;;;6243855;28;20196;-69
2021/08/05 10:17:25;;;;;;;0.30;0.30;;;17.40;99.90;;;;;;6244800;28;20540;-69
2021/08/05 10:20:30;;;;;;;1.63;0.30;;;17.50;99.90;;;;;;6244882;28;20208;-69
2021/08/05 10:23:35;;;;;;;0.13;0.10;;;17.40;99.90;;;;;;6245149;28;20187;-69
2021/08/05 10:26:38;;;;;;;0.20;0.20;;;17.40;99.90;;;;;;6259968;28;20180;-69
2021/08/05 10:29:42;;;;;;;1.13;0.20;;;17.40;99.90;;;;;;6245199;28;20587;-69
2021/08/05 10:32:48;;;;;;;1.03;0.20;;;17.30;99.90;;;;;;6244800;28;20192;-69
2021/08/05 10:35:51;;;;;;;0.20;0.20;;;17.30;99.90;;;;;;6244768;28;20626;-69
2021/08/05 10:38:54;;;;;;;0.30;0.20;;;17.30;99.90;;;;;;6243517;28;20231;-68
2021/08/05 10:41:59;;;;;;;1.47;0.20;;;17.30;99.90;;;;;;6243403;28;20238;-68
2021/08/05 10:45:03;;;;;;;0.20;0.20;;;17.20;99.90;;;;;;6260134;28;20200;-70
2021/08/05 10:48:06;;;;;;;3.50;0.23;;;17.20;99.90;;;;;;6244370;28;20548;-69
2021/08/05 10:51:11;;;;;;;0.20;0.20;;;17.10;99.90;;;;;;6243440;28;20219;-70
2021/08/05 10:54:46;;;;;;;1.07;0.30;;;17.00;99.90;;;;;;6244416;28;20628;-68
2021/08/05 10:58:10;;;;;;;1.50;0.40;;;16.90;99.90;;;;;;6264512;28;20487;-69
2021/08/05 11:01:13;;;;;;;0.30;0.30;;;16.90;99.90;;;;;;6247942;28;20213;-69
2021/08/05 11:04:34;;;;;;;0.30;0.30;;;16.90;99.90;;;;;;6247771;28;20549;-71
2021/08/05 11:07:37;;;;;;;1.57;0.20;;;16.90;99.90;;;;;;6249212;28;20648;-70
2021/08/05 11:10:39;;;;;;;1.37;0.33;;;16.90;99.90;;;;;;6248937;28;20214;-69
2021/08/05 11:13:42;;;;;;;0.20;0.20;;;17.10;99.90;;;;;;6248812;28;20675;-72
2021/08/05 11:16:53;;;;;;;0.87;0.20;;;17.10;99.90;;;;;;6247608;28;20378;-71
2021/08/05 11:20:16;;;;;;;0.20;0.20;;;17.10;99.90;;;;;;6248551;28;20254;-72
2021/08/05 11:23:32;;;;;;;0.30;0.30;;;17.10;99.90;;;;;;6248578;28;20195;-73
2021/08/05 11:27:11;;;;;;;0.20;0.20;;;17.20;99.90;;;;;;6247416;28;20203;-73
2021/08/05 11:30:43;;;;;;;0.20;0.20;;;17.20;99.90;;;;;;6248641;28;20200;-72
2021/08/05 11:33:53;;;;;;;0.30;0.30;;;17.30;99.90;;;;;;6247269;28;20261;-72
2021/08/05 11:37:08;;;;;;;0.47;0.30;;;17.20;99.90;;;;;;6263974;28;20216;-71
2021/08/05 11:40:11;;;;;;;0.20;0.20;;;17.30;99.90;;;;;;6263639;28;20219;-71
2021/08/05 11:43:21;;;;;;;0.20;0.20;;;17.30;99.90;;;;;;6263557;28;20200;-74
2021/08/05 11:46:30;;;;;;;0.90;0.30;;;17.30;99.90;;;;;;6263355;28;20192;-71
2021/08/05 11:49:34;;;;;;;1.30;0.30;;;17.30;99.90;;;;;;6248089;28;20190;-71
2021/08/05 11:52:47;;;;;;;0.20;0.20;;;17.40;99.90;;;;;;6246946;28;20207;-73
2021/08/05 11:55:51;;;;;;;3.10;0.30;;;17.50;99.90;;;;;;6248021;28;20179;-72
2021/08/05 11:58:54;;;;;;;0.43;0.30;;;17.60;99.90;;;;;;6248575;28;20203;-71
2021/08/05 12:02:17;;;;;;;0.30;0.20;;;17.70;99.90;;;;;;6247072;28;20216;-71
2021/08/05 12:05:22;;;;;;;0.33;0.30;;;17.80;99.90;;;;;;6248071;28;20540;-71
2021/08/05 12:08:24;;;;;;;1.80;0.37;;;18.00;99.90;;;;;;6245113;28;20188;-72
2021/08/05 12:11:27;;;;;;;0.40;0.40;;;17.90;99.90;;;;;;6246643;28;20227;-73
2021/08/05 12:14:29;;;;;;;0.40;0.30;;;18.00;99.90;;;;;;6262575;28;20246;-72
2021/08/05 12:17:39;;;;;;;0.20;0.20;;;17.80;99.90;;;;;;6246310;28;20295;-71
2021/08/05 12:20:46;;;;;;;0.30;0.30;;;17.80;99.90;;;;;;6262679;28;20212;-72
2021/08/05 12:23:53;;;;;;;0.33;0.33;;;17.80;99.90;;;;;;6247330;28;20192;-72
2021/08/05 12:26:59;;;;;;;0.30;0.30;;;17.80;99.90;;;;;;6247289;28;20620;-71
2021/08/05 12:30:09;;;;;;;0.60;0.40;;;17.70;99.90;;;;;;6246232;28;20188;-70
2021/08/05 12:33:22;;;;;;;0.40;0.37;;;17.80;99.90;;;;;;6262451;28;20200;-70
2021/08/05 12:36:26;;;;;;;0.47;0.47;;;17.80;99.90;;;;;;6245690;28;20219;-71
2021/08/05 12:39:28;;;;;;;0.40;0.30;;;17.80;99.90;;;;;;6247242;28;20206;-71
2021/08/05 12:42:30;;;;;;;0.83;0.50;;;17.90;99.90;;;;;;6245114;28;20714;-71
2021/08/05 12:45:35;;;;;;;1.80;0.43;;;17.90;99.90;;;;;;6262136;28;20304;-70
2021/08/05 12:48:40;;;;;;;0.67;0.67;;;17.90;99.90;;;;;;6245362;28;20270;-72
2021/08/05 12:51:43;;;;;;;0.70;0.50;;;17.80;99.90;;;;;;6245136;28;20287;-72
2021/08/05 12:54:55;;;;;;;0.77;0.57;;;17.80;99.90;;;;;;6246307;28;20192;-70
2021/08/05 12:58:01;;;;;;;0.60;0.60;;;17.80;99.90;;;;;;6246337;28;20248;-70
2021/08/05 13:01:22;;;;;;;1.77;0.60;;;17.70;99.90;;;;;;6246147;28;20204;-70
2021/08/05 13:04:25;;;;;;;0.70;0.70;;;17.60;99.90;;;;;;6246437;28;20264;-70
2021/08/05 13:07:40;;;;;;;0.80;0.70;;;17.60;99.90;;;;;;6244706;28;21171;-69
2021/08/05 13:10:45;;;;;;;0.63;0.63;;;17.50;99.90;;;;;;6246040;28;20208;-68
2021/08/05 13:13:56;;;;;;;1.23;0.50;;;17.60;99.90;;;;;;6245761;28;20291;-69
2021/08/05 13:17:16;;;;;;;2.00;0.90;;;17.70;99.90;;;;;;6244478;28;20228;-69
2021/08/05 13:20:21;;;;;;;0.70;0.70;;;17.60;99.90;;;;;;6244271;28;20216;-71
2021/08/05 13:23:27;;;;;;;1.13;0.80;;;17.60;99.90;;;;;;6245721;28;20661;-71
2021/08/05 13:26:35;;;;;;;0.80;0.80;;;17.60;99.90;;;;;;6244457;28;20219;-71
2021/08/05 13:29:37;;;;;;;1.90;0.80;;;17.60;99.90;;;;;;6245172;28;20196;-72
2021/08/05 13:32:48;;;;;;;1.70;0.87;;;17.70;99.90;;;;;;6229034;28;20204;-70
2021/08/05 13:35:53;;;;;;;0.90;0.90;;;17.70;99.90;;;;;;6244988;28;20291;-71
2021/08/05 13:38:57;;;;;;;1.90;0.80;;;17.70;99.90;;;;;;6245848;28;20514;-71
2021/08/05 13:42:00;;;;;;;0.70;0.70;;;17.70;99.90;;;;;;6245633;28;20576;-70
2021/08/05 13:45:03;;;;;;;0.93;0.90;;;17.70;99.90;;;;;;6244393;28;20192;-70
2021/08/05 13:48:05;;;;;;;3.80;0.90;;;17.80;99.90;;;;;;6261347;28;20231;-72
2021/08/05 13:51:08;;;;;;;1.80;0.80;;;17.70;99.90;;;;;;6245260;28;20195;-70
2021/08/05 13:54:10;;;;;;;1.70;0.90;;;17.80;99.90;;;;;;6244441;28;20203;-71
2021/08/05 13:57:13;;;;;;;5.23;3.13;;;17.80;99.90;;;;;;6260787;28;20651;-69
2021/08/05 14:00:16;;;;;;;2.80;1.10;;;18.00;99.90;;;;;;6243949;28;20674;-70
2021/08/05 14:03:19;;;;;;;2.40;0.90;;;18.20;99.90;;;;;;6246381;28;20188;-70
2021/08/05 14:06:22;;;;;;;3.27;0.70;;;18.30;99.90;;;;;;6244199;28;20598;-69
2021/08/05 14:09:25;;;;;;;1.87;0.70;;;18.40;99.90;;;;;;6243820;28;20663;-71
2021/08/05 14:12:28;;;;;;;1.03;0.80;;;18.50;99.90;;;;;;6244800;28;20192;-70
2021/08/05 14:15:31;;;;;;;1.30;0.77;;;18.50;99.90;;;;;;6244947;28;20298;-72
2021/08/05 14:18:33;;;;;;;2.00;0.77;;;18.40;99.90;;;;;;6244634;28;20196;-71
2021/08/05 14:21:36;;;;;;;1.03;1.00;;;18.40;99.90;;;;;;6243738;28;20743;-71
2021/08/05 14:24:39;;;;;;;1.67;0.70;;;18.40;99.90;;;;;;6259842;28;20538;-70
2021/08/05 14:27:41;;;;;;;1.63;0.60;;;18.40;99.90;;;;;;6243702;28;20541;-71
2021/08/05 14:30:43;;;;;;;1.23;0.87;;;18.50;99.90;;;;;;6246657;28;20188;-71
2021/08/05 14:33:46;;;;;;;0.63;0.63;;;18.50;99.90;;;;;;6247963;28;20299;-71
2021/08/05 14:36:49;;;;;;;0.70;0.70;;;18.60;99.90;;;;;;6249562;28;20239;-71
2021/08/05 14:39:51;;;;;;;1.73;0.90;;;18.70;99.90;;;;;;6264736;28;20273;-71
2021/08/05 14:42:54;;;;;;;0.60;0.60;;;18.80;99.90;;;;;;6248016;28;20238;-71
2021/08/05 14:45:56;;;;;;;1.37;0.63;;;18.80;99.90;;;;;;6249403;28;20659;-71
2021/08/05 14:48:58;;;;;;;0.93;0.63;;;18.90;99.90;;;;;;6247963;28;20581;-70
2021/08/05 14:52:01;;;;;;;1.20;0.80;;;18.90;99.90;;;;;;6247859;28;20283;-69
2021/08/05 14:55:04;;;;;;;0.70;0.70;;;18.90;99.90;;;;;;6264264;28;20226;-70
2021/08/05 14:58:06;;;;;;;1.00;0.80;;;18.80;99.90;;;;;;6249149;28;20207;-70
2021/08/05 15:01:08;;;;;;;1.10;1.00;;;18.80;99.90;;;;;;6248781;28;20703;-70
2021/08/05 15:04:11;;;;;;;0.70;0.70;;;18.70;99.90;;;;;;6264187;28;20200;-69
2021/08/05 15:07:13;;;;;;;0.80;0.80;;;18.70;99.90;;;;;;6249036;28;20199;-69
2021/08/05 15:10:16;;;;;;;1.30;1.20;;;18.60;99.90;;;;;;6264140;28;20196;-70
2021/08/05 15:13:18;;;;;;;0.60;0.60;;;18.60;99.90;;;;;;6263858;28;20287;-71
2021/08/05 15:16:20;;;;;;;1.00;0.90;;;18.70;99.90;;;;;;6248661;28;20640;-70
2021/08/05 15:19:23;;;;;;;1.17;0.70;;;18.70;99.90;;;;;;6248664;28;20196;-70
2021/08/05 15:22:25;;;;;;;0.73;0.70;;;18.80;99.90;;;;;;6247394;28;20216;-70
2021/08/05 15:25:27;;;;;;;1.77;0.90;;;19.00;99.90;;;;;;6248326;28;20184;-70
2021/08/05 15:28:30;;;;;;;2.83;1.00;;;19.10;99.90;;;;;;6248378;28;20655;-72
2021/08/05 15:31:33;;;;;;;1.13;0.90;;;19.20;99.90;;;;;;6263579;28;20204;-72
2021/08/05 15:34:36;;;;;;;0.73;0.70;;;19.20;99.90;;;;;;6248292;28;20564;-71
2021/08/05 15:37:38;;;;;;;0.87;0.73;;;19.10;99.90;;;;;;6248442;28;20208;-71
2021/08/05 15:40:41;;;;;;;3.90;1.00;;;19.10;99.90;;;;;;6248146;28;20283;-72
2021/08/05 15:43:46;;;;;;;1.57;0.60;;;19.20;99.90;;;;;;6246857;28;20196;-71
2021/08/05 15:46:49;;;;;;;2.20;1.07;;;19.20;99.90;;;;;;6246994;28;20549;-72
2021/08/05 15:49:56;;;;;;;0.87;0.77;;;19.30;99.90;;;;;;6223843;28;20193;-71
2021/08/05 15:53:03;;;;;;;0.90;0.77;;;19.50;99.90;;;;;;6260620;28;20203;-72
2021/08/05 15:56:07;;;;;;;0.70;0.67;;;19.50;99.90;;;;;;6246746;28;20196;-70
2021/08/05 15:59:11;;;;;;;0.80;0.67;;;19.50;99.90;;;;;;6263153;28;20202;-72
2021/08/05 16:02:14;;;;;;;0.80;0.80;;;19.30;99.90;;;;;;6246390;28;20660;-71
2021/08/05 16:05:20;;;;;;;2.50;0.90;;;19.20;99.90;;;;;;6262829;28;20188;-72